sensor_id;sensor_type;location;lat;lon;timestamp;P1;P2;P0
65574;PMS5003;52216;54.942;73.394;2022-08-01T00:02:00;31.00;29.00;16.00
65574;PMS5003;52216;54.942;73.394;2022-08-01T00:05:02;30.00;27.00;16.00
65574;PMS5003;52216;54.942;73.394;2022-08-01T00:08:06;31.00;28.75;15.75
65574;PMS5003;52216;54.942;73.394;2022-08-01T00:11:08;30.00;27.75;16.00
65574;PMS5003;52216;54.942;73.394;2022-08-01T00:14:21;28.75;28.00;16.00
65574;PMS5003;52216;54.942;73.394;2022-08-01T00:17:24;26.00;26.00;15.00
65574;PMS5003;52216;54.942;73.394;2022-08-01T00:20:25;26.75;26.75;17.00
65574;PMS5003;52216;54.942;73.394;2022-08-01T00:23:28;28.00;28.00;18.00
65574;PMS5003;52216;54.942;73.394;2022-08-01T00:26:35;27.75;25.00;17.00
65574;PMS5003;52216;54.942;73.394;2022-08-01T00:29:42;27.50;26.50;16.00
65574;PMS5003;52216;54.942;73.394;2022-08-01T00:32:54;29.00;27.00;16.00
65574;PMS5003;52216;54.942;73.394;2022-08-01T00:35:56;28.00;27.00;17.00
65574;PMS5003;52216;54.942;73.394;2022-08-01T00:38:57;28.00;26.75;15.50
65574;PMS5003;52216;54.942;73.394;2022-08-01T00:42:00;28.00;28.00;16.00
65574;PMS5003;52216;54.942;73.394;2022-08-01T00:45:07;28.00;28.00;16.00
65574;PMS5003;52216;54.942;73.394;2022-08-01T00:48:09;26.00;26.00;15.00
65574;PMS5003;52216;54.942;73.394;2022-08-01T00:51:22;26.00;26.00;16.75
65574;PMS5003;52216;54.942;73.394;2022-08-01T00:54:24;26.00;26.00;16.00
65574;PMS5003;52216;54.942;73.394;2022-08-01T00:57:26;26.00;26.00;16.00
65574;PMS5003;52216;54.942;73.394;2022-08-01T01:00:29;27.00;27.00;16.00
65574;PMS5003;52216;54.942;73.394;2022-08-01T01:03:31;27.00;26.50;15.50
65574;PMS5003;52216;54.942;73.394;2022-08-01T01:12:43;26.00;25.00;16.00
65574;PMS5003;52216;54.942;73.394;2022-08-01T01:15:58;26.83;25.83;17.00
65574;PMS5003;52216;54.942;73.394;2022-08-01T01:19:02;26.80;25.80;15.00
65574;PMS5003;52216;54.942;73.394;2022-08-01T01:28:34;25.00;24.33;15.00
65574;PMS5003;52216;54.942;73.394;2022-08-01T01:31:56;25.67;25.00;15.00
65574;PMS5003;52216;54.942;73.394;2022-08-01T01:35:01;28.00;26.50;16.00
65574;PMS5003;52216;54.942;73.394;2022-08-01T01:38:15;28.25;26.00;16.00
65574;PMS5003;52216;54.942;73.394;2022-08-01T01:41:18;31.00;29.25;17.00
65574;PMS5003;52216;54.942;73.394;2022-08-01T01:44:21;30.00;29.00;17.00
65574;PMS5003;52216;54.942;73.394;2022-08-01T01:47:23;29.50;28.25;17.00
65574;PMS5003;52216;54.942;73.394;2022-08-01T01:50:27;31.50;29.00;17.25
65574;PMS5003;52216;54.942;73.394;2022-08-01T01:53:29;31.00;29.25;19.00
65574;PMS5003;52216;54.942;73.394;2022-08-01T01:56:33;30.00;29.00;17.00
65574;PMS5003;52216;54.942;73.394;2022-08-01T01:59:36;30.00;29.00;17.00
65574;PMS5003;52216;54.942;73.394;2022-08-01T02:02:40;30.00;28.00;17.25
65574;PMS5003;52216;54.942;73.394;2022-08-01T02:05:43;32.00;29.00;18.00
65574;PMS5003;52216;54.942;73.394;2022-08-01T02:08:55;34.50;29.00;19.00
65574;PMS5003;52216;54.942;73.394;2022-08-01T02:11:57;33.00;29.00;20.00
65574;PMS5003;52216;54.942;73.394;2022-08-01T02:15:09;31.00;28.50;19.00
65574;PMS5003;52216;54.942;73.394;2022-08-01T02:18:12;29.00;29.00;19.00
65574;PMS5003;52216;54.942;73.394;2022-08-01T02:21:18;28.00;28.00;19.00
65574;PMS5003;52216;54.942;73.394;2022-08-01T02:24:28;30.75;29.75;19.00
65574;PMS5003;52216;54.942;73.394;2022-08-01T02:27:37;32.00;30.00;19.00
65574;PMS5003;52216;54.942;73.394;2022-08-01T02:30:44;32.00;31.00;19.00
65574;PMS5003;52216;54.942;73.394;2022-08-01T02:34:00;33.00;30.00;19.00
65574;PMS5003;52216;54.942;73.394;2022-08-01T02:37:03;35.00;30.00;19.00
65574;PMS5003;52216;54.942;73.394;2022-08-01T02:40:06;32.00;30.00;19.00
65574;PMS5003;52216;54.942;73.394;2022-08-01T02:43:10;32.00;31.00;19.00
65574;PMS5003;52216;54.942;73.394;2022-08-01T02:46:16;33.25;31.00;20.00
65574;PMS5003;52216;54.942;73.394;2022-08-01T02:49:19;32.00;30.00;19.00
65574;PMS5003;52216;54.942;73.394;2022-08-01T02:52:23;32.00;31.00;19.00
65574;PMS5003;52216;54.942;73.394;2022-08-01T02:55:26;33.25;31.00;18.75
65574;PMS5003;52216;54.942;73.394;2022-08-01T02:58:29;34.50;31.00;19.00
65574;PMS5003;52216;54.942;73.394;2022-08-01T03:01:38;36.00;32.00;18.60
65574;PMS5003;52216;54.942;73.394;2022-08-01T03:04:41;34.00;31.00;19.00
65574;PMS5003;52216;54.942;73.394;2022-08-01T03:07:43;36.50;32.00;19.50
65574;PMS5003;52216;54.942;73.394;2022-08-01T03:10:46;36.50;31.75;20.00
65574;PMS5003;52216;54.942;73.394;2022-08-01T03:13:50;34.00;30.50;19.00
65574;PMS5003;52216;54.942;73.394;2022-08-01T03:16:54;34.50;31.50;18.50
65574;PMS5003;52216;54.942;73.394;2022-08-01T03:19:58;36.00;32.00;19.60
65574;PMS5003;52216;54.942;73.394;2022-08-01T03:23:06;36.40;32.00;20.60
65574;PMS5003;52216;54.942;73.394;2022-08-01T03:26:19;35.60;31.00;21.00
65574;PMS5003;52216;54.942;73.394;2022-08-01T03:29:24;35.20;31.20;21.00
65574;PMS5003;52216;54.942;73.394;2022-08-01T03:32:27;34.00;31.00;20.00
65574;PMS5003;52216;54.942;73.394;2022-08-01T03:35:42;33.00;30.20;20.00
65574;PMS5003;52216;54.942;73.394;2022-08-01T03:38:48;35.60;32.00;20.00
65574;PMS5003;52216;54.942;73.394;2022-08-01T03:41:54;34.00;32.00;21.00
65574;PMS5003;52216;54.942;73.394;2022-08-01T03:45:08;36.75;32.25;21.00
65574;PMS5003;52216;54.942;73.394;2022-08-01T03:48:16;33.00;30.00;19.00
65574;PMS5003;52216;54.942;73.394;2022-08-01T03:51:20;36.20;32.00;19.00
65574;PMS5003;52216;54.942;73.394;2022-08-01T03:54:33;37.25;32.00;20.75
65574;PMS5003;52216;54.942;73.394;2022-08-01T03:57:36;35.75;32.00;20.25
65574;PMS5003;52216;54.942;73.394;2022-08-01T04:00:40;36.00;32.00;20.00
65574;PMS5003;52216;54.942;73.394;2022-08-01T04:03:44;36.00;31.80;20.00
65574;PMS5003;52216;54.942;73.394;2022-08-01T04:06:56;38.60;34.00;20.00
65574;PMS5003;52216;54.942;73.394;2022-08-01T04:10:00;39.00;34.20;21.00
65574;PMS5003;52216;54.942;73.394;2022-08-01T04:13:02;40.00;34.75;22.00
65574;PMS5003;52216;54.942;73.394;2022-08-01T04:16:05;39.20;34.20;22.20
65574;PMS5003;52216;54.942;73.394;2022-08-01T04:19:07;39.00;34.00;22.00
65574;PMS5003;52216;54.942;73.394;2022-08-01T04:22:11;39.20;34.20;21.00
65574;PMS5003;52216;54.942;73.394;2022-08-01T04:25:15;40.00;35.00;21.00
65574;PMS5003;52216;54.942;73.394;2022-08-01T04:28:19;44.25;36.00;21.00
65574;PMS5003;52216;54.942;73.394;2022-08-01T04:31:22;46.00;38.00;22.75
65574;PMS5003;52216;54.942;73.394;2022-08-01T04:34:30;46.00;38.50;22.00
65574;PMS5003;52216;54.942;73.394;2022-08-01T04:37:34;44.00;37.00;22.00
65574;PMS5003;52216;54.942;73.394;2022-08-01T04:40:42;47.00;39.00;23.00
65574;PMS5003;52216;54.942;73.394;2022-08-01T04:43:46;47.00;39.00;22.75
65574;PMS5003;52216;54.942;73.394;2022-08-01T04:46:53;44.00;37.00;23.00
65574;PMS5003;52216;54.942;73.394;2022-08-01T04:49:56;43.00;37.00;22.75
65574;PMS5003;52216;54.942;73.394;2022-08-01T04:52:59;40.25;35.00;23.00
65574;PMS5003;52216;54.942;73.394;2022-08-01T04:56:04;42.00;35.00;22.00
65574;PMS5003;52216;54.942;73.394;2022-08-01T04:59:07;41.00;34.00;22.00
65574;PMS5003;52216;54.942;73.394;2022-08-01T05:02:28;43.00;34.80;22.00
65574;PMS5003;52216;54.942;73.394;2022-08-01T05:05:30;42.00;35.00;22.00
65574;PMS5003;52216;54.942;73.394;2022-08-01T05:08:33;39.00;34.00;21.00
65574;PMS5003;52216;54.942;73.394;2022-08-01T05:11:35;38.75;34.00;21.00
65574;PMS5003;52216;54.942;73.394;2022-08-01T05:14:42;41.50;35.25;21.00
65574;PMS5003;52216;54.942;73.394;2022-08-01T05:17:46;40.00;34.00;21.00
65574;PMS5003;52216;54.942;73.394;2022-08-01T05:20:48;42.00;35.00;21.00
65574;PMS5003;52216;54.942;73.394;2022-08-01T05:23:50;44.00;37.00;21.00
65574;PMS5003;52216;54.942;73.394;2022-08-01T05:26:51;41.00;35.00;22.00
65574;PMS5003;52216;54.942;73.394;2022-08-01T05:29:54;41.00;35.00;22.00
65574;PMS5003;52216;54.942;73.394;2022-08-01T05:32:56;41.00;34.00;22.00
65574;PMS5003;52216;54.942;73.394;2022-08-01T05:35:58;40.75;33.50;21.00
65574;PMS5003;52216;54.942;73.394;2022-08-01T05:39:11;40.25;34.25;21.00
65574;PMS5003;52216;54.942;73.394;2022-08-01T05:42:13;41.00;35.00;22.00
65574;PMS5003;52216;54.942;73.394;2022-08-01T05:45:14;39.25;33.75;20.00
65574;PMS5003;52216;54.942;73.394;2022-08-01T05:48:17;40.00;34.00;20.60
65574;PMS5003;52216;54.942;73.394;2022-08-01T05:51:20;34.00;32.00;20.00
65574;PMS5003;52216;54.942;73.394;2022-08-01T05:54:22;32.50;31.00;20.00
65574;PMS5003;52216;54.942;73.394;2022-08-01T05:57:35;35.00;32.00;20.00
65574;PMS5003;52216;54.942;73.394;2022-08-01T06:00:38;38.50;33.50;21.00
65574;PMS5003;52216;54.942;73.394;2022-08-01T06:03:41;39.00;34.00;20.80
65574;PMS5003;52216;54.942;73.394;2022-08-01T06:06:45;39.00;34.00;21.00
65574;PMS5003;52216;54.942;73.394;2022-08-01T06:09:48;37.00;32.00;21.00
65574;PMS5003;52216;54.942;73.394;2022-08-01T06:12:53;36.25;32.25;21.00
65574;PMS5003;52216;54.942;73.394;2022-08-01T06:16:01;40.20;35.00;21.00
65574;PMS5003;52216;54.942;73.394;2022-08-01T06:19:03;37.00;34.00;20.00
65574;PMS5003;52216;54.942;73.394;2022-08-01T06:22:05;34.50;31.50;20.00
65574;PMS5003;52216;54.942;73.394;2022-08-01T06:25:07;35.00;32.00;20.00
65574;PMS5003;52216;54.942;73.394;2022-08-01T06:28:15;36.00;31.80;20.00
65574;PMS5003;52216;54.942;73.394;2022-08-01T06:31:17;36.25;31.00;19.25
65574;PMS5003;52216;54.942;73.394;2022-08-01T06:34:24;38.00;32.00;19.40
65574;PMS5003;52216;54.942;73.394;2022-08-01T06:37:28;34.60;31.00;19.00
65574;PMS5003;52216;54.942;73.394;2022-08-01T06:40:31;37.00;32.00;20.25
65574;PMS5003;52216;54.942;73.394;2022-08-01T06:43:38;35.00;31.00;21.00
65574;PMS5003;52216;54.942;73.394;2022-08-01T06:46:40;37.75;34.00;22.00
65574;PMS5003;52216;54.942;73.394;2022-08-01T06:49:42;40.00;34.00;22.00
65574;PMS5003;52216;54.942;73.394;2022-08-01T06:52:44;38.00;34.00;21.00
65574;PMS5003;52216;54.942;73.394;2022-08-01T06:55:46;37.00;32.00;20.00
65574;PMS5003;52216;54.942;73.394;2022-08-01T06:58:49;35.25;32.00;19.75
65574;PMS5003;52216;54.942;73.394;2022-08-01T07:01:53;37.00;33.00;20.00
65574;PMS5003;52216;54.942;73.394;2022-08-01T07:04:55;38.25;34.00;20.75
65574;PMS5003;52216;54.942;73.394;2022-08-01T07:07:57;37.00;33.00;21.00
65574;PMS5003;52216;54.942;73.394;2022-08-01T07:10:59;37.00;32.00;20.00
65574;PMS5003;52216;54.942;73.394;2022-08-01T07:14:01;36.00;32.00;19.00
65574;PMS5003;52216;54.942;73.394;2022-08-01T07:17:06;36.00;32.00;19.00
65574;PMS5003;52216;54.942;73.394;2022-08-01T07:20:10;34.00;31.00;18.80
65574;PMS5003;52216;54.942;73.394;2022-08-01T07:23:12;32.00;30.00;17.00
65574;PMS5003;52216;54.942;73.394;2022-08-01T07:26:14;34.00;31.00;18.00
65574;PMS5003;52216;54.942;73.394;2022-08-01T07:29:16;30.00;29.00;18.00
65574;PMS5003;52216;54.942;73.394;2022-08-01T07:32:18;30.00;29.00;18.00
65574;PMS5003;52216;54.942;73.394;2022-08-01T07:35:20;29.00;29.00;19.00
65574;PMS5003;52216;54.942;73.394;2022-08-01T07:38:22;29.00;27.00;17.00
65574;PMS5003;52216;54.942;73.394;2022-08-01T07:41:24;29.00;27.00;17.00
65574;PMS5003;52216;54.942;73.394;2022-08-01T07:44:26;30.25;29.00;18.00
65574;PMS5003;52216;54.942;73.394;2022-08-01T07:47:42;28.00;27.00;18.00
65574;PMS5003;52216;54.942;73.394;2022-08-01T07:50:44;27.25;27.00;17.00
65574;PMS5003;52216;54.942;73.394;2022-08-01T07:53:51;26.00;25.00;16.00
65574;PMS5003;52216;54.942;73.394;2022-08-01T07:56:54;26.60;26.00;16.80
65574;PMS5003;52216;54.942;73.394;2022-08-01T07:59:56;25.75;24.75;16.00
65574;PMS5003;52216;54.942;73.394;2022-08-01T08:02:58;24.75;24.75;16.00
65574;PMS5003;52216;54.942;73.394;2022-08-01T08:06:08;25.83;25.83;16.00
65574;PMS5003;52216;54.942;73.394;2022-08-01T08:09:10;28.00;28.00;16.00
65574;PMS5003;52216;54.942;73.394;2022-08-01T08:12:13;28.00;28.00;16.00
65574;PMS5003;52216;54.942;73.394;2022-08-01T08:15:15;27.75;26.00;15.00
65574;PMS5003;52216;54.942;73.394;2022-08-01T08:18:16;28.50;25.00;15.00
65574;PMS5003;52216;54.942;73.394;2022-08-01T08:21:30;24.60;22.40;14.00
65574;PMS5003;52216;54.942;73.394;2022-08-01T08:24:32;25.00;24.50;14.00
65574;PMS5003;52216;54.942;73.394;2022-08-01T08:27:36;23.60;23.60;13.00
65574;PMS5003;52216;54.942;73.394;2022-08-01T08:30:39;23.40;22.40;14.00
65574;PMS5003;52216;54.942;73.394;2022-08-01T08:33:41;27.25;25.00;16.00
65574;PMS5003;52216;54.942;73.394;2022-08-01T08:36:49;23.00;21.00;14.00
65574;PMS5003;52216;54.942;73.394;2022-08-01T08:39:52;18.00;17.00;9.00
65574;PMS5003;52216;54.942;73.394;2022-08-01T08:42:54;16.00;16.00;8.00
65574;PMS5003;52216;54.942;73.394;2022-08-01T08:45:57;14.00;12.00;6.00
65574;PMS5003;52216;54.942;73.394;2022-08-01T08:49:11;13.00;11.00;6.33
65574;PMS5003;52216;54.942;73.394;2022-08-01T08:52:14;11.00;11.00;7.00
65574;PMS5003;52216;54.942;73.394;2022-08-01T08:55:17;12.25;11.75;6.00
65574;PMS5003;52216;54.942;73.394;2022-08-01T08:58:19;13.00;12.25;5.00
65574;PMS5003;52216;54.942;73.394;2022-08-01T09:01:32;11.00;10.00;5.00
65574;PMS5003;52216;54.942;73.394;2022-08-01T09:04:36;10.50;10.00;5.00
65574;PMS5003;52216;54.942;73.394;2022-08-01T09:07:41;11.00;11.00;6.00
65574;PMS5003;52216;54.942;73.394;2022-08-01T09:10:43;11.00;9.50;5.00
65574;PMS5003;52216;54.942;73.394;2022-08-01T09:14:05;9.00;9.00;4.25
65574;PMS5003;52216;54.942;73.394;2022-08-01T09:17:08;12.00;11.50;6.00
65574;PMS5003;52216;54.942;73.394;2022-08-01T09:20:22;10.00;10.00;5.00
65574;PMS5003;52216;54.942;73.394;2022-08-01T09:23:34;10.00;10.00;5.50
65574;PMS5003;52216;54.942;73.394;2022-08-01T09:26:41;9.75;9.75;5.00
65574;PMS5003;52216;54.942;73.394;2022-08-01T09:29:43;6.33;6.33;4.00
65574;PMS5003;52216;54.942;73.394;2022-08-01T09:32:56;9.50;8.75;3.50
65574;PMS5003;52216;54.942;73.394;2022-08-01T09:35:59;14.25;12.50;5.00
65574;PMS5003;52216;54.942;73.394;2022-08-01T09:39:04;14.00;12.00;5.00
65574;PMS5003;52216;54.942;73.394;2022-08-01T09:42:22;13.00;13.00;4.50
65574;PMS5003;52216;54.942;73.394;2022-08-01T09:45:32;12.00;10.00;4.00
65574;PMS5003;52216;54.942;73.394;2022-08-01T09:48:34;10.25;9.25;5.00
65574;PMS5003;52216;54.942;73.394;2022-08-01T09:51:48;9.00;9.00;5.00
65574;PMS5003;52216;54.942;73.394;2022-08-01T09:54:56;10.00;10.00;5.00
65574;PMS5003;52216;54.942;73.394;2022-08-01T09:57:59;9.67;9.67;4.00
65574;PMS5003;52216;54.942;73.394;2022-08-01T10:01:02;8.00;8.00;5.00
65574;PMS5003;52216;54.942;73.394;2022-08-01T10:04:13;7.25;7.00;4.00
65574;PMS5003;52216;54.942;73.394;2022-08-01T10:07:25;6.33;6.33;4.00
65574;PMS5003;52216;54.942;73.394;2022-08-01T10:10:27;7.00;6.00;4.00
65574;PMS5003;52216;54.942;73.394;2022-08-01T10:13:29;7.00;6.00;3.00
65574;PMS5003;52216;54.942;73.394;2022-08-01T10:16:32;6.50;6.50;2.00
65574;PMS5003;52216;54.942;73.394;2022-08-01T10:19:38;7.75;7.00;3.00
65574;PMS5003;52216;54.942;73.394;2022-08-01T10:22:42;5.00;5.00;3.00
65574;PMS5003;52216;54.942;73.394;2022-08-01T10:25:45;5.00;5.00;3.00
65574;PMS5003;52216;54.942;73.394;2022-08-01T10:28:47;4.00;4.00;1.00
65574;PMS5003;52216;54.942;73.394;2022-08-01T10:32:01;6.33;6.33;4.00
65574;PMS5003;52216;54.942;73.394;2022-08-01T10:35:03;7.00;6.75;3.75
65574;PMS5003;52216;54.942;73.394;2022-08-01T10:38:06;6.00;5.00;3.00
65574;PMS5003;52216;54.942;73.394;2022-08-01T10:41:09;4.75;4.25;2.00
65574;PMS5003;52216;54.942;73.394;2022-08-01T10:44:23;6.75;5.75;3.00
65574;PMS5003;52216;54.942;73.394;2022-08-01T10:47:44;7.00;6.00;3.50
65574;PMS5003;52216;54.942;73.394;2022-08-01T10:50:48;4.00;4.00;2.00
65574;PMS5003;52216;54.942;73.394;2022-08-01T10:53:51;4.50;4.00;2.00
65574;PMS5003;52216;54.942;73.394;2022-08-01T10:56:54;4.00;3.25;1.00
65574;PMS5003;52216;54.942;73.394;2022-08-01T10:59:59;2.00;2.00;1.00
65574;PMS5003;52216;54.942;73.394;2022-08-01T11:03:03;3.00;3.00;0.00
65574;PMS5003;52216;54.942;73.394;2022-08-01T11:06:06;2.00;2.00;0.00
65574;PMS5003;52216;54.942;73.394;2022-08-01T11:09:24;3.00;3.00;0.00
65574;PMS5003;52216;54.942;73.394;2022-08-01T11:12:48;3.00;3.00;0.00
65574;PMS5003;52216;54.942;73.394;2022-08-01T11:15:50;3.00;3.00;0.00
65574;PMS5003;52216;54.942;73.394;2022-08-01T11:19:18;3.00;3.00;0.00
65574;PMS5003;52216;54.942;73.394;2022-08-01T11:22:21;3.00;3.00;1.00
65574;PMS5003;52216;54.942;73.394;2022-08-01T11:28:31;2.00;2.00;0.00
65574;PMS5003;52216;54.942;73.394;2022-08-01T11:31:34;3.00;3.00;0.00
65574;PMS5003;52216;54.942;73.394;2022-08-01T11:34:53;1.00;1.00;0.00
65574;PMS5003;52216;54.942;73.394;2022-08-01T11:38:40;0.00;0.00;0.00
65574;PMS5003;52216;54.942;73.394;2022-08-01T11:41:41;1.00;1.00;0.00
65574;PMS5003;52216;54.942;73.394;2022-08-01T11:44:48;2.25;1.00;0.00
65574;PMS5003;52216;54.942;73.394;2022-08-01T11:48:02;1.00;0.00;0.00
65574;PMS5003;52216;54.942;73.394;2022-08-01T11:51:26;0.00;0.00;0.00
65574;PMS5003;52216;54.942;73.394;2022-08-01T11:54:30;0.00;0.00;0.00
65574;PMS5003;52216;54.942;73.394;2022-08-01T11:57:37;1.50;1.50;0.00
65574;PMS5003;52216;54.942;73.394;2022-08-01T12:00:40;2.00;2.00;0.00
65574;PMS5003;52216;54.942;73.394;2022-08-01T12:03:44;1.00;1.00;0.00
65574;PMS5003;52216;54.942;73.394;2022-08-01T12:06:47;2.00;2.00;0.00
65574;PMS5003;52216;54.942;73.394;2022-08-01T12:09:59;1.00;1.00;0.00
65574;PMS5003;52216;54.942;73.394;2022-08-01T12:13:06;1.00;1.00;0.00
65574;PMS5003;52216;54.942;73.394;2022-08-01T12:16:10;1.00;1.00;0.00
65574;PMS5003;52216;54.942;73.394;2022-08-01T12:19:17;1.00;1.00;0.00
65574;PMS5003;52216;54.942;73.394;2022-08-01T12:22:22;1.25;1.25;0.00
65574;PMS5003;52216;54.942;73.394;2022-08-01T12:25:25;0.00;0.00;0.00
65574;PMS5003;52216;54.942;73.394;2022-08-01T12:28:29;0.00;0.00;0.00
65574;PMS5003;52216;54.942;73.394;2022-08-01T12:31:34;0.00;0.00;0.00
65574;PMS5003;52216;54.942;73.394;2022-08-01T12:34:43;0.00;0.00;0.00
65574;PMS5003;52216;54.942;73.394;2022-08-01T12:37:52;0.00;0.00;0.00
65574;PMS5003;52216;54.942;73.394;2022-08-01T12:40:56;1.00;1.00;0.00
65574;PMS5003;52216;54.942;73.394;2022-08-01T12:43:59;1.00;1.00;0.00
65574;PMS5003;52216;54.942;73.394;2022-08-01T12:47:02;2.00;1.00;0.00
65574;PMS5003;52216;54.942;73.394;2022-08-01T12:50:15;1.00;1.00;0.00
65574;PMS5003;52216;54.942;73.394;2022-08-01T12:53:18;1.25;1.00;0.00
65574;PMS5003;52216;54.942;73.394;2022-08-01T12:56:29;1.00;1.00;0.00
65574;PMS5003;52216;54.942;73.394;2022-08-01T12:59:33;0.00;0.00;0.00
65574;PMS5003;52216;54.942;73.394;2022-08-01T13:02:37;0.00;0.00;0.00
65574;PMS5003;52216;54.942;73.394;2022-08-01T13:08:49;1.00;0.00;0.00
65574;PMS5003;52216;54.942;73.394;2022-08-01T13:12:08;1.00;0.00;0.00
65574;PMS5003;52216;54.942;73.394;2022-08-01T13:15:16;1.00;0.00;0.00
65574;PMS5003;52216;54.942;73.394;2022-08-01T13:18:30;0.00;0.00;0.00
65574;PMS5003;52216;54.942;73.394;2022-08-01T13:21:33;0.00;0.00;0.00
65574;PMS5003;52216;54.942;73.394;2022-08-01T13:24:36;1.00;0.00;0.00
65574;PMS5003;52216;54.942;73.394;2022-08-01T13:27:40;1.00;0.00;0.00
65574;PMS5003;52216;54.942;73.394;2022-08-01T13:33:55;1.50;1.50;0.00
65574;PMS5003;52216;54.942;73.394;2022-08-01T13:36:57;0.67;0.67;0.00
65574;PMS5003;52216;54.942;73.394;2022-08-01T13:39:59;1.75;1.75;0.00
65574;PMS5003;52216;54.942;73.394;2022-08-01T13:43:01;3.00;3.00;0.00
65574;PMS5003;52216;54.942;73.394;2022-08-01T13:46:03;1.00;1.00;0.00
65574;PMS5003;52216;54.942;73.394;2022-08-01T13:49:07;1.00;1.00;0.00
65574;PMS5003;52216;54.942;73.394;2022-08-01T13:52:10;2.25;1.00;0.00
65574;PMS5003;52216;54.942;73.394;2022-08-01T13:55:13;0.25;0.25;0.00
65574;PMS5003;52216;54.942;73.394;2022-08-01T13:58:16;0.75;0.75;0.00
65574;PMS5003;52216;54.942;73.394;2022-08-01T14:01:19;2.25;2.25;0.00
65574;PMS5003;52216;54.942;73.394;2022-08-01T14:04:22;1.00;1.00;0.00
65574;PMS5003;52216;54.942;73.394;2022-08-01T14:07:25;1.00;0.00;0.00
65574;PMS5003;52216;54.942;73.394;2022-08-01T14:10:28;1.00;0.00;0.00
65574;PMS5003;52216;54.942;73.394;2022-08-01T14:13:41;1.00;0.00;0.00
65574;PMS5003;52216;54.942;73.394;2022-08-01T14:16:44;2.00;2.00;0.00
65574;PMS5003;52216;54.942;73.394;2022-08-01T14:19:47;1.50;1.00;0.00
65574;PMS5003;52216;54.942;73.394;2022-08-01T14:22:51;2.00;0.00;0.00
65574;PMS5003;52216;54.942;73.394;2022-08-01T14:25:54;1.50;1.50;0.00
65574;PMS5003;52216;54.942;73.394;2022-08-01T14:28:57;1.50;1.50;0.00
65574;PMS5003;52216;54.942;73.394;2022-08-01T14:32:00;1.50;1.50;0.00
65574;PMS5003;52216;54.942;73.394;2022-08-01T14:35:13;0.00;0.00;0.00
65574;PMS5003;52216;54.942;73.394;2022-08-01T14:38:17;1.00;1.00;0.00
65574;PMS5003;52216;54.942;73.394;2022-08-01T14:41:20;1.50;1.50;0.00
65574;PMS5003;52216;54.942;73.394;2022-08-01T14:44:23;1.00;1.00;0.00
65574;PMS5003;52216;54.942;73.394;2022-08-01T14:47:26;1.00;1.00;0.00
65574;PMS5003;52216;54.942;73.394;2022-08-01T14:50:36;0.00;0.00;0.00
65574;PMS5003;52216;54.942;73.394;2022-08-01T14:53:41;0.00;0.00;0.00
65574;PMS5003;52216;54.942;73.394;2022-08-01T14:56:45;0.00;0.00;0.00
65574;PMS5003;52216;54.942;73.394;2022-08-01T14:59:47;0.00;0.00;0.00
65574;PMS5003;52216;54.942;73.394;2022-08-01T15:02:49;0.00;0.00;0.00
65574;PMS5003;52216;54.942;73.394;2022-08-01T15:06:02;0.00;0.00;0.00
65574;PMS5003;52216;54.942;73.394;2022-08-01T15:09:05;0.25;0.25;0.00
65574;PMS5003;52216;54.942;73.394;2022-08-01T15:12:09;3.25;3.25;0.00
65574;PMS5003;52216;54.942;73.394;2022-08-01T15:15:12;3.00;3.00;0.00
65574;PMS5003;52216;54.942;73.394;2022-08-01T15:18:21;3.00;3.00;0.00
65574;PMS5003;52216;54.942;73.394;2022-08-01T15:21:24;3.00;3.00;0.00
65574;PMS5003;52216;54.942;73.394;2022-08-01T15:24:27;4.00;3.25;0.00
65574;PMS5003;52216;54.942;73.394;2022-08-01T15:27:40;3.00;3.00;0.00
65574;PMS5003;52216;54.942;73.394;2022-08-01T15:30:42;3.25;2.50;0.00
65574;PMS5003;52216;54.942;73.394;2022-08-01T15:33:45;3.00;3.00;1.25
65574;PMS5003;52216;54.942;73.394;2022-08-01T15:36:48;3.00;3.00;2.00
65574;PMS5003;52216;54.942;73.394;2022-08-01T15:39:52;4.50;3.25;1.00
65574;PMS5003;52216;54.942;73.394;2022-08-01T15:42:59;4.50;3.75;0.00
65574;PMS5003;52216;54.942;73.394;2022-08-01T15:46:03;4.00;4.00;0.00
65574;PMS5003;52216;54.942;73.394;2022-08-01T15:49:16;3.50;3.50;1.00
65574;PMS5003;52216;54.942;73.394;2022-08-01T15:52:19;4.75;3.50;1.50
65574;PMS5003;52216;54.942;73.394;2022-08-01T15:55:22;4.00;3.00;0.00
65574;PMS5003;52216;54.942;73.394;2022-08-01T15:58:25;4.25;4.25;1.00
65574;PMS5003;52216;54.942;73.394;2022-08-01T16:01:28;2.75;2.75;1.00
65574;PMS5003;52216;54.942;73.394;2022-08-01T16:04:41;3.00;3.00;0.00
65574;PMS5003;52216;54.942;73.394;2022-08-01T16:07:44;3.00;3.00;0.00
65574;PMS5003;52216;54.942;73.394;2022-08-01T16:10:47;2.00;2.00;0.00
65574;PMS5003;52216;54.942;73.394;2022-08-01T16:13:50;3.50;3.50;0.50
65574;PMS5003;52216;54.942;73.394;2022-08-01T16:16:58;4.00;3.75;1.00
65574;PMS5003;52216;54.942;73.394;2022-08-01T16:20:01;5.00;4.75;1.00
65574;PMS5003;52216;54.942;73.394;2022-08-01T16:23:04;4.00;3.00;2.00
65574;PMS5003;52216;54.942;73.394;2022-08-01T16:26:08;3.00;3.00;0.00
65574;PMS5003;52216;54.942;73.394;2022-08-01T16:29:11;2.75;2.75;0.00
65574;PMS5003;52216;54.942;73.394;2022-08-01T16:32:14;3.00;3.00;0.00
65574;PMS5003;52216;54.942;73.394;2022-08-01T16:35:17;2.00;2.00;0.00
65574;PMS5003;52216;54.942;73.394;2022-08-01T16:38:30;2.50;2.00;0.00
65574;PMS5003;52216;54.942;73.394;2022-08-01T16:41:35;2.00;1.00;0.00
65574;PMS5003;52216;54.942;73.394;2022-08-01T16:44:38;1.00;1.00;0.00
65574;PMS5003;52216;54.942;73.394;2022-08-01T16:47:41;1.00;1.00;0.00
65574;PMS5003;52216;54.942;73.394;2022-08-01T16:50:46;1.00;1.00;0.00
65574;PMS5003;52216;54.942;73.394;2022-08-01T16:53:54;0.00;0.00;0.00
65574;PMS5003;52216;54.942;73.394;2022-08-01T16:56:57;0.00;0.00;0.00
65574;PMS5003;52216;54.942;73.394;2022-08-01T17:00:03;0.00;0.00;0.00
65574;PMS5003;52216;54.942;73.394;2022-08-01T17:03:17;0.00;0.00;0.00
65574;PMS5003;52216;54.942;73.394;2022-08-01T17:06:20;0.00;0.00;0.00
65574;PMS5003;52216;54.942;73.394;2022-08-01T17:09:23;0.00;0.00;0.00
65574;PMS5003;52216;54.942;73.394;2022-08-01T17:12:27;0.00;0.00;0.00
65574;PMS5003;52216;54.942;73.394;2022-08-01T17:15:30;0.00;0.00;0.00
65574;PMS5003;52216;54.942;73.394;2022-08-01T17:18:41;0.00;0.00;0.00
65574;PMS5003;52216;54.942;73.394;2022-08-01T17:21:44;0.00;0.00;0.00
65574;PMS5003;52216;54.942;73.394;2022-08-01T17:24:47;0.00;0.00;0.00
65574;PMS5003;52216;54.942;73.394;2022-08-01T17:27:52;0.00;0.00;0.00
65574;PMS5003;52216;54.942;73.394;2022-08-01T17:30:55;1.00;1.00;0.00
65574;PMS5003;52216;54.942;73.394;2022-08-01T17:33:58;0.00;0.00;0.00
65574;PMS5003;52216;54.942;73.394;2022-08-01T17:37:01;0.00;0.00;0.00
65574;PMS5003;52216;54.942;73.394;2022-08-01T17:40:05;0.00;0.00;0.00
65574;PMS5003;52216;54.942;73.394;2022-08-01T17:43:08;0.00;0.00;0.00
65574;PMS5003;52216;54.942;73.394;2022-08-01T17:46:16;0.00;0.00;0.00
65574;PMS5003;52216;54.942;73.394;2022-08-01T17:49:19;0.50;0.00;0.00